Terminal Aerodrome Forecast
Issued by NWS

Current Version | Previous Version | Graphics & Text | Print | Product List | Glossary On
Versions: 1 2 3 4 5 6 7 8 9 10 11 12 13 14 15 16 17 18 19 20 21 22 23 24 25
000
FTUS41 KRLX 210700 AAA
TAFCKB
TAF AMD
KCKB 210750Z 2108/2206 00000KT 6SM BR SCT035
     FM211000 00000KT 3SM BR SCT030
     FM211300 00000KT P6SM SCT040
     FM220400 VRB03KT 6SM BR SCT250=

USA.gov is the U.S. government's official web portal to all federal, state and local government web resources and services.